Wilson Norfolk — 9HA2466 — position and weather

sailwx.info

Track history (hours):
 
Tides and Currents Weather Stations Pressure Air Temp Water Temp Dewpoint Dewpoint Depression Visibility Wind Speed Wind Dir Waves Ship Positions

Wilson Norfolk

Last reported at 2016-Feb-08 04:18 UTC. Time now 2016-Feb-08 10:05 UTC.
Position N 64°04' W 021°58'.

Length 123 m; draft 7.5 m.

Type: Ship. MMSI: 248678000.

Date/timePositionNaut miles runAvg speedWind from/ knotsBaromVisibWave heightAir tempDewpointWater temp
2016-Feb-08 04:18N 64°04' W 021°58'0 0.0
2016-Feb-08 03:27N 64°04' W 021°58'0 0.0
2016-Feb-08 02:30N 64°04' W 021°58'0 0.0
2016-Feb-08 01:33N 64°04' W 021°58'0 0.0
2016-Feb-08 00:33N 64°04' W 021°58'0 0.0
2016-Feb-07 23:33N 64°04' W 021°58'0 0.0
2016-Feb-07 22:33N 64°04' W 021°58'0 0.0
2016-Feb-07 21:33N 64°04' W 021°58'0 0.0
2016-Feb-07 20:18N 64°04' W 021°58'0 0.0
2016-Feb-07 19:18N 64°04' W 021°58'0 0.0
2016-Feb-07 18:18N 64°04' W 021°58'0 0.0
2016-Feb-07 17:06N 64°04' W 021°58'0 0.0
2016-Feb-07 15:30N 64°04' W 021°58'0 0.0
2016-Feb-07 14:30N 64°04' W 021°58'0 0.0
2016-Feb-07 13:33N 64°04' W 021°58'0 0.0
2016-Feb-07 12:33N 64°04' W 021°58'0 0.0
2016-Feb-07 11:33N 64°04' W 021°58'0 0.0
2016-Feb-07 10:30N 64°04' W 021°58'0 0.0
2016-Feb-07 09:30N 64°04' W 021°58'0 0.0
2016-Feb-07 08:24N 64°04' W 021°58'0 0.0
2016-Feb-07 06:33N 64°04' W 021°58'0 0.0
2016-Feb-07 05:24N 64°04' W 021°58'0 0.0
2016-Feb-07 03:30N 64°04' W 021°58'0 0.0
2016-Feb-07 02:33N 64°04' W 021°58'0 0.0
2016-Feb-07 01:21N 64°04' W 021°58'0 0.0
2016-Feb-07 00:24N 64°04' W 021°58'0 0.0
2016-Feb-06 23:30N 64°04' W 021°58'0 0.0
2016-Feb-06 22:30N 64°04' W 021°58'0 0.0
2016-Feb-06 21:33N 64°04' W 021°58'0 0.0
2016-Feb-06 20:18N 64°04' W 021°58'0 0.2
2016-Feb-06 19:33N 64°04' W 021°58'8 7.9
2016-Feb-06 18:33N 64°05' W 022°16'1110.4
2016-Feb-06 17:28N 64°08' W 022°41'  
2016-Jan-30 21:32N 41°21' W 010°57'1010.2
2016-Jan-30 20:32N 41°11' W 010°53'9 9.4
2016-Jan-30 19:32N 41°02' W 010°49'1010.2
2016-Jan-30 18:32N 40°52' W 010°45'10 9.5
2016-Jan-30 17:32N 40°43' W 010°41'13 9.5
2016-Jan-30 16:11N 40°31' W 010°35'710.8
2016-Jan-30 15:32N 40°25' W 010°33'9 9.3
2016-Jan-30 14:32N 40°16' W 010°29'1010.0
2016-Jan-30 13:32N 40°06' W 010°25'9 9.3
2016-Jan-30 12:32N 39°57' W 010°21'9 9.5
2016-Jan-30 11:32N 39°48' W 010°17'1510.2
2016-Jan-30 10:05N 39°35' W 010°10'5 9.0
2016-Jan-30 09:32N 39°30' W 010°07'1110.3
2016-Jan-30 08:29N 39°20' W 010°04'9 9.0
2016-Jan-30 07:32N 39°12' W 010°01'1010.1
2016-Jan-30 06:33N 39°02' W 009°57'1010.0
2016-Jan-30 05:33N 38°53' W 009°53'10 9.9
2016-Jan-30 04:33N 38°43' W 009°51'10 9.6
2016-Jan-30 03:33N 38°34' W 009°48'9 9.3
2016-Jan-30 02:33N 38°25' W 009°46'9 9.5
2016-Jan-30 01:33N 38°15' W 009°44'10 9.6
2016-Jan-30 00:32N 38°06' W 009°41'12 9.5
2016-Jan-29 23:17N 37°54' W 009°38'7 9.3
2016-Jan-29 22:33N 37°48' W 009°35'10 9.8
2016-Jan-29 21:32N 37°38' W 009°32'9 9.3
2016-Jan-29 20:32N 37°29' W 009°30'10 9.7
2016-Jan-29 19:32N 37°19' W 009°27'9 8.8
2016-Jan-29 18:32N 37°11' W 009°24'10 9.5
2016-Jan-29 17:32N 37°02' W 009°22'10 9.5
2016-Jan-29 16:32N 36°52' W 009°19'10 9.6
2016-Jan-29 15:32N 36°46' W 009°10'9 9.5
2016-Jan-29 14:32N 36°42' W 008°59'10 9.2
2016-Jan-29 13:29N 36°39' W 008°48'9 9.6
2016-Jan-29 12:32N 36°36' W 008°37'1010.1
2016-Jan-29 11:32N 36°33' W 008°25'1010.3
2016-Jan-29 10:32N 36°30' W 008°13'  
Track history (hours):
 
Tides and Currents Weather Stations Pressure Air Temp Water Temp Dewpoint Dewpoint Depression Visibility Wind Speed Wind Dir Waves Ship Positions

Wilson Norfolk

Last reported at 2016-Feb-08 04:18 UTC. Time now 2016-Feb-08 10:05 UTC.
Position N 64°04' W 021°58'.

Length 123 m; draft 7.5 m.

Type: Ship. MMSI: 248678000.

Date/timePositionNaut miles runAvg speedWind from/ knotsBaromVisibWave heightAir tempDewpointWater temp
2016-Feb-08 04:18N 64°04' W 021°58'0 0.0
2016-Feb-08 03:27N 64°04' W 021°58'0 0.0
2016-Feb-08 02:30N 64°04' W 021°58'0 0.0
2016-Feb-08 01:33N 64°04' W 021°58'0 0.0
2016-Feb-08 00:33N 64°04' W 021°58'0 0.0
2016-Feb-07 23:33N 64°04' W 021°58'0 0.0
2016-Feb-07 22:33N 64°04' W 021°58'0 0.0
2016-Feb-07 21:33N 64°04' W 021°58'0 0.0
2016-Feb-07 20:18N 64°04' W 021°58'0 0.0
2016-Feb-07 19:18N 64°04' W 021°58'0 0.0
2016-Feb-07 18:18N 64°04' W 021°58'0 0.0
2016-Feb-07 17:06N 64°04' W 021°58'0 0.0
2016-Feb-07 15:30N 64°04' W 021°58'0 0.0
2016-Feb-07 14:30N 64°04' W 021°58'0 0.0
2016-Feb-07 13:33N 64°04' W 021°58'0 0.0
2016-Feb-07 12:33N 64°04' W 021°58'0 0.0
2016-Feb-07 11:33N 64°04' W 021°58'0 0.0
2016-Feb-07 10:30N 64°04' W 021°58'0 0.0
2016-Feb-07 09:30N 64°04' W 021°58'0 0.0
2016-Feb-07 08:24N 64°04' W 021°58'0 0.0
2016-Feb-07 06:33N 64°04' W 021°58'0 0.0
2016-Feb-07 05:24N 64°04' W 021°58'0 0.0
2016-Feb-07 03:30N 64°04' W 021°58'0 0.0
2016-Feb-07 02:33N 64°04' W 021°58'0 0.0
2016-Feb-07 01:21N 64°04' W 021°58'0 0.0
2016-Feb-07 00:24N 64°04' W 021°58'0 0.0
2016-Feb-06 23:30N 64°04' W 021°58'0 0.0
2016-Feb-06 22:30N 64°04' W 021°58'0 0.0
2016-Feb-06 21:33N 64°04' W 021°58'0 0.0
2016-Feb-06 20:18N 64°04' W 021°58'0 0.2
2016-Feb-06 19:33N 64°04' W 021°58'8 7.9
2016-Feb-06 18:33N 64°05' W 022°16'1110.4
2016-Feb-06 17:28N 64°08' W 022°41'  
2016-Jan-30 21:32N 41°21' W 010°57'1010.2
2016-Jan-30 20:32N 41°11' W 010°53'9 9.4
2016-Jan-30 19:32N 41°02' W 010°49'1010.2
2016-Jan-30 18:32N 40°52' W 010°45'10 9.5
2016-Jan-30 17:32N 40°43' W 010°41'13 9.5
2016-Jan-30 16:11N 40°31' W 010°35'710.8
2016-Jan-30 15:32N 40°25' W 010°33'9 9.3
2016-Jan-30 14:32N 40°16' W 010°29'1010.0
2016-Jan-30 13:32N 40°06' W 010°25'9 9.3
2016-Jan-30 12:32N 39°57' W 010°21'9 9.5
2016-Jan-30 11:32N 39°48' W 010°17'1510.2
2016-Jan-30 10:05N 39°35' W 010°10'5 9.0
2016-Jan-30 09:32N 39°30' W 010°07'1110.3
2016-Jan-30 08:29N 39°20' W 010°04'9 9.0
2016-Jan-30 07:32N 39°12' W 010°01'1010.1
2016-Jan-30 06:33N 39°02' W 009°57'1010.0
2016-Jan-30 05:33N 38°53' W 009°53'10 9.9
2016-Jan-30 04:33N 38°43' W 009°51'10 9.6
2016-Jan-30 03:33N 38°34' W 009°48'9 9.3
2016-Jan-30 02:33N 38°25' W 009°46'9 9.5
2016-Jan-30 01:33N 38°15' W 009°44'10 9.6
2016-Jan-30 00:32N 38°06' W 009°41'12 9.5
2016-Jan-29 23:17N 37°54' W 009°38'7 9.3
2016-Jan-29 22:33N 37°48' W 009°35'10 9.8
2016-Jan-29 21:32N 37°38' W 009°32'9 9.3
2016-Jan-29 20:32N 37°29' W 009°30'10 9.7
2016-Jan-29 19:32N 37°19' W 009°27'9 8.8
2016-Jan-29 18:32N 37°11' W 009°24'10 9.5
2016-Jan-29 17:32N 37°02' W 009°22'10 9.5
2016-Jan-29 16:32N 36°52' W 009°19'10 9.6
2016-Jan-29 15:32N 36°46' W 009°10'9 9.5
2016-Jan-29 14:32N 36°42' W 008°59'10 9.2
2016-Jan-29 13:29N 36°39' W 008°48'9 9.6
2016-Jan-29 12:32N 36°36' W 008°37'1010.1
2016-Jan-29 11:32N 36°33' W 008°25'1010.3
2016-Jan-29 10:32N 36°30' W 008°13'  

Dump ship's entire track history